sensor_id;sensor_type;location;lat;lon;timestamp;P1;durP1;ratioP1;P2;durP2;ratioP2
39864;SDS011;25538;48.392;9.976;2022-12-18T00:00:38;56.92;;;29.65;;
39864;SDS011;25538;48.392;9.976;2022-12-18T00:03:09;62.00;;;33.65;;
39864;SDS011;25538;48.392;9.976;2022-12-18T00:05:50;65.55;;;32.72;;
39864;SDS011;25538;48.392;9.976;2022-12-18T00:08:18;50.70;;;30.55;;
39864;SDS011;25538;48.392;9.976;2022-12-18T00:10:44;53.00;;;33.20;;
39864;SDS011;25538;48.392;9.976;2022-12-18T00:13:22;49.03;;;28.80;;
39864;SDS011;25538;48.392;9.976;2022-12-18T00:15:52;58.50;;;30.48;;
39864;SDS011;25538;48.392;9.976;2022-12-18T00:18:18;55.10;;;28.67;;
39864;SDS011;25538;48.392;9.976;2022-12-18T00:20:52;56.60;;;29.90;;
39864;SDS011;25538;48.392;9.976;2022-12-18T00:23:22;57.55;;;32.92;;
39864;SDS011;25538;48.392;9.976;2022-12-18T00:25:51;49.85;;;30.83;;
39864;SDS011;25538;48.392;9.976;2022-12-18T00:28:26;53.83;;;33.20;;
39864;SDS011;25538;48.392;9.976;2022-12-18T00:31:02;58.65;;;31.55;;
39864;SDS011;25538;48.392;9.976;2022-12-18T00:33:34;50.80;;;29.98;;
39864;SDS011;25538;48.392;9.976;2022-12-18T00:36:06;56.38;;;31.77;;
39864;SDS011;25538;48.392;9.976;2022-12-18T00:38:39;60.00;;;32.70;;
39864;SDS011;25538;48.392;9.976;2022-12-18T00:41:07;54.90;;;32.10;;
39864;SDS011;25538;48.392;9.976;2022-12-18T00:44:11;57.58;;;30.35;;
39864;SDS011;25538;48.392;9.976;2022-12-18T00:46:50;54.80;;;31.25;;
39864;SDS011;25538;48.392;9.976;2022-12-18T00:49:42;55.70;;;30.33;;
39864;SDS011;25538;48.392;9.976;2022-12-18T00:52:22;57.58;;;29.77;;
39864;SDS011;25538;48.392;9.976;2022-12-18T00:55:01;55.50;;;31.17;;
39864;SDS011;25538;48.392;9.976;2022-12-18T00:57:39;63.80;;;33.75;;
39864;SDS011;25538;48.392;9.976;2022-12-18T01:03:48;59.25;;;28.67;;
39864;SDS011;25538;48.392;9.976;2022-12-18T01:06:41;56.10;;;29.30;;
39864;SDS011;25538;48.392;9.976;2022-12-18T01:09:29;51.92;;;31.38;;
39864;SDS011;25538;48.392;9.976;2022-12-18T01:12:19;54.83;;;31.02;;
39864;SDS011;25538;48.392;9.976;2022-12-18T01:15:06;62.72;;;33.42;;
39864;SDS011;25538;48.392;9.976;2022-12-18T01:18:02;51.55;;;33.55;;
39864;SDS011;25538;48.392;9.976;2022-12-18T01:21:11;48.78;;;28.08;;
39864;SDS011;25538;48.392;9.976;2022-12-18T01:24:16;56.95;;;31.02;;
39864;SDS011;25538;48.392;9.976;2022-12-18T01:26:47;54.88;;;29.35;;
39864;SDS011;25538;48.392;9.976;2022-12-18T01:32:49;54.13;;;31.10;;
39864;SDS011;25538;48.392;9.976;2022-12-18T01:35:46;63.65;;;31.38;;
39864;SDS011;25538;48.392;9.976;2022-12-18T01:42:30;62.30;;;32.72;;
39864;SDS011;25538;48.392;9.976;2022-12-18T02:04:26;67.88;;;32.53;;
39864;SDS011;25538;48.392;9.976;2022-12-18T02:19:00;54.83;;;31.83;;
39864;SDS011;25538;48.392;9.976;2022-12-18T02:29:38;57.83;;;31.15;;
39864;SDS011;25538;48.392;9.976;2022-12-18T02:32:49;65.80;;;33.15;;
39864;SDS011;25538;48.392;9.976;2022-12-18T02:38:00;54.95;;;29.80;;
39864;SDS011;25538;48.392;9.976;2022-12-18T02:40:28;60.05;;;34.17;;
39864;SDS011;25538;48.392;9.976;2022-12-18T02:42:55;59.90;;;30.92;;
39864;SDS011;25538;48.392;9.976;2022-12-18T02:45:27;61.30;;;34.45;;
39864;SDS011;25538;48.392;9.976;2022-12-18T02:47:54;52.22;;;29.27;;
39864;SDS011;25538;48.392;9.976;2022-12-18T03:03:56;58.45;;;33.78;;
39864;SDS011;25538;48.392;9.976;2022-12-18T03:06:25;56.08;;;29.95;;
39864;SDS011;25538;48.392;9.976;2022-12-18T03:09:01;59.60;;;31.95;;
39864;SDS011;25538;48.392;9.976;2022-12-18T03:11:32;60.28;;;32.35;;
39864;SDS011;25538;48.392;9.976;2022-12-18T03:14:19;60.58;;;32.05;;
39864;SDS011;25538;48.392;9.976;2022-12-18T03:16:49;59.75;;;30.92;;
39864;SDS011;25538;48.392;9.976;2022-12-18T03:19:19;62.30;;;34.58;;
39864;SDS011;25538;48.392;9.976;2022-12-18T03:21:49;55.63;;;33.28;;
39864;SDS011;25538;48.392;9.976;2022-12-18T03:24:18;54.42;;;30.13;;
39864;SDS011;25538;48.392;9.976;2022-12-18T03:26:47;53.90;;;30.98;;
39864;SDS011;25538;48.392;9.976;2022-12-18T03:29:20;52.97;;;32.45;;
39864;SDS011;25538;48.392;9.976;2022-12-18T03:31:54;53.53;;;30.27;;
39864;SDS011;25538;48.392;9.976;2022-12-18T03:34:24;58.05;;;31.77;;
39864;SDS011;25538;48.392;9.976;2022-12-18T03:36:56;51.70;;;30.60;;
39864;SDS011;25538;48.392;9.976;2022-12-18T03:39:23;58.50;;;34.15;;
39864;SDS011;25538;48.392;9.976;2022-12-18T03:41:55;66.03;;;35.15;;
39864;SDS011;25538;48.392;9.976;2022-12-18T03:44:40;58.78;;;31.33;;
39864;SDS011;25538;48.392;9.976;2022-12-18T03:52:40;66.22;;;33.90;;
39864;SDS011;25538;48.392;9.976;2022-12-18T03:55:12;57.90;;;31.70;;
39864;SDS011;25538;48.392;9.976;2022-12-18T03:57:38;70.13;;;35.33;;
39864;SDS011;25538;48.392;9.976;2022-12-18T04:00:11;64.95;;;33.80;;
39864;SDS011;25538;48.392;9.976;2022-12-18T04:02:41;67.00;;;33.42;;
39864;SDS011;25538;48.392;9.976;2022-12-18T04:05:15;74.25;;;35.15;;
39864;SDS011;25538;48.392;9.976;2022-12-18T04:07:42;70.90;;;37.45;;
39864;SDS011;25538;48.392;9.976;2022-12-18T04:10:12;59.40;;;33.38;;
39864;SDS011;25538;48.392;9.976;2022-12-18T04:12:39;66.18;;;36.50;;
39864;SDS011;25538;48.392;9.976;2022-12-18T04:15:06;62.97;;;35.78;;
39864;SDS011;25538;48.392;9.976;2022-12-18T04:17:33;63.13;;;37.88;;
39864;SDS011;25538;48.392;9.976;2022-12-18T04:19:59;70.60;;;35.45;;
39864;SDS011;25538;48.392;9.976;2022-12-18T04:22:25;63.10;;;36.33;;
39864;SDS011;25538;48.392;9.976;2022-12-18T04:24:52;72.72;;;35.40;;
39864;SDS011;25538;48.392;9.976;2022-12-18T04:27:18;65.43;;;35.57;;
39864;SDS011;25538;48.392;9.976;2022-12-18T04:29:44;72.55;;;35.33;;
39864;SDS011;25538;48.392;9.976;2022-12-18T04:32:09;69.87;;;37.30;;
39864;SDS011;25538;48.392;9.976;2022-12-18T04:34:35;75.43;;;37.20;;
39864;SDS011;25538;48.392;9.976;2022-12-18T04:37:01;67.97;;;36.63;;
39864;SDS011;25538;48.392;9.976;2022-12-18T04:39:27;69.72;;;36.50;;
39864;SDS011;25538;48.392;9.976;2022-12-18T04:41:53;68.87;;;38.47;;
39864;SDS011;25538;48.392;9.976;2022-12-18T04:44:19;71.60;;;33.70;;
39864;SDS011;25538;48.392;9.976;2022-12-18T04:46:45;76.77;;;36.20;;
39864;SDS011;25538;48.392;9.976;2022-12-18T04:49:11;70.07;;;36.43;;
39864;SDS011;25538;48.392;9.976;2022-12-18T04:51:37;69.85;;;35.70;;
39864;SDS011;25538;48.392;9.976;2022-12-18T04:54:03;65.25;;;34.00;;
39864;SDS011;25538;48.392;9.976;2022-12-18T04:56:30;65.50;;;33.70;;
39864;SDS011;25538;48.392;9.976;2022-12-18T04:58:56;61.50;;;33.28;;
39864;SDS011;25538;48.392;9.976;2022-12-18T05:01:22;65.03;;;35.07;;
39864;SDS011;25538;48.392;9.976;2022-12-18T05:03:48;67.87;;;36.40;;
39864;SDS011;25538;48.392;9.976;2022-12-18T05:06:16;60.97;;;35.03;;
39864;SDS011;25538;48.392;9.976;2022-12-18T05:08:42;65.10;;;34.30;;
39864;SDS011;25538;48.392;9.976;2022-12-18T05:11:09;63.00;;;34.37;;
39864;SDS011;25538;48.392;9.976;2022-12-18T05:13:37;65.50;;;32.22;;
39864;SDS011;25538;48.392;9.976;2022-12-18T05:16:03;66.68;;;33.47;;
39864;SDS011;25538;48.392;9.976;2022-12-18T05:18:30;73.22;;;37.60;;
39864;SDS011;25538;48.392;9.976;2022-12-18T05:20:56;70.70;;;34.50;;
39864;SDS011;25538;48.392;9.976;2022-12-18T05:23:23;78.45;;;36.47;;
39864;SDS011;25538;48.392;9.976;2022-12-18T05:25:53;56.85;;;32.78;;
39864;SDS011;25538;48.392;9.976;2022-12-18T05:28:24;61.42;;;34.00;;
39864;SDS011;25538;48.392;9.976;2022-12-18T05:30:51;64.20;;;33.45;;
39864;SDS011;25538;48.392;9.976;2022-12-18T05:33:20;65.28;;;32.67;;
39864;SDS011;25538;48.392;9.976;2022-12-18T05:35:53;69.68;;;34.05;;
39864;SDS011;25538;48.392;9.976;2022-12-18T05:38:21;64.35;;;34.22;;
39864;SDS011;25538;48.392;9.976;2022-12-18T05:40:49;68.20;;;37.95;;
39864;SDS011;25538;48.392;9.976;2022-12-18T05:43:16;65.43;;;34.53;;
39864;SDS011;25538;48.392;9.976;2022-12-18T05:45:42;71.00;;;35.97;;
39864;SDS011;25538;48.392;9.976;2022-12-18T05:48:08;65.80;;;35.73;;
39864;SDS011;25538;48.392;9.976;2022-12-18T05:50:37;64.68;;;34.15;;
39864;SDS011;25538;48.392;9.976;2022-12-18T05:53:04;64.10;;;34.22;;
39864;SDS011;25538;48.392;9.976;2022-12-18T05:55:34;71.35;;;36.70;;
39864;SDS011;25538;48.392;9.976;2022-12-18T05:58:01;69.90;;;37.47;;
39864;SDS011;25538;48.392;9.976;2022-12-18T06:00:28;73.45;;;36.40;;
39864;SDS011;25538;48.392;9.976;2022-12-18T06:02:54;71.68;;;34.60;;
39864;SDS011;25538;48.392;9.976;2022-12-18T06:05:21;65.38;;;36.55;;
39864;SDS011;25538;48.392;9.976;2022-12-18T06:07:47;71.10;;;36.00;;
39864;SDS011;25538;48.392;9.976;2022-12-18T06:10:12;84.05;;;38.30;;
39864;SDS011;25538;48.392;9.976;2022-12-18T06:12:38;87.30;;;38.30;;
39864;SDS011;25538;48.392;9.976;2022-12-18T06:15:04;73.88;;;35.90;;
39864;SDS011;25538;48.392;9.976;2022-12-18T06:17:31;76.18;;;40.08;;
39864;SDS011;25538;48.392;9.976;2022-12-18T06:19:57;78.20;;;37.15;;
39864;SDS011;25538;48.392;9.976;2022-12-18T06:22:24;78.63;;;38.13;;
39864;SDS011;25538;48.392;9.976;2022-12-18T06:24:50;73.57;;;36.58;;
39864;SDS011;25538;48.392;9.976;2022-12-18T06:27:16;80.30;;;38.20;;
39864;SDS011;25538;48.392;9.976;2022-12-18T06:29:41;66.33;;;36.57;;
39864;SDS011;25538;48.392;9.976;2022-12-18T06:32:07;68.28;;;34.47;;
39864;SDS011;25538;48.392;9.976;2022-12-18T06:34:33;77.10;;;37.38;;
39864;SDS011;25538;48.392;9.976;2022-12-18T06:37:01;85.65;;;39.22;;
39864;SDS011;25538;48.392;9.976;2022-12-18T06:39:27;77.35;;;38.10;;
39864;SDS011;25538;48.392;9.976;2022-12-18T06:41:53;82.32;;;38.90;;
39864;SDS011;25538;48.392;9.976;2022-12-18T06:44:19;75.40;;;38.30;;
39864;SDS011;25538;48.392;9.976;2022-12-18T06:46:45;81.72;;;38.72;;
39864;SDS011;25538;48.392;9.976;2022-12-18T06:49:11;76.77;;;36.60;;
39864;SDS011;25538;48.392;9.976;2022-12-18T06:51:37;73.53;;;37.17;;
39864;SDS011;25538;48.392;9.976;2022-12-18T06:54:03;82.20;;;38.67;;
39864;SDS011;25538;48.392;9.976;2022-12-18T06:56:29;76.35;;;38.83;;
39864;SDS011;25538;48.392;9.976;2022-12-18T06:58:55;69.03;;;35.60;;
39864;SDS011;25538;48.392;9.976;2022-12-18T07:01:21;80.18;;;38.60;;
39864;SDS011;25538;48.392;9.976;2022-12-18T07:03:51;70.20;;;35.40;;
39864;SDS011;25538;48.392;9.976;2022-12-18T07:06:19;69.63;;;37.00;;
39864;SDS011;25538;48.392;9.976;2022-12-18T07:08:47;74.75;;;37.30;;
39864;SDS011;25538;48.392;9.976;2022-12-18T07:11:14;80.65;;;39.50;;
39864;SDS011;25538;48.392;9.976;2022-12-18T07:13:41;67.40;;;35.72;;
39864;SDS011;25538;48.392;9.976;2022-12-18T07:16:17;63.90;;;34.15;;
39864;SDS011;25538;48.392;9.976;2022-12-18T07:18:44;75.40;;;34.63;;
39864;SDS011;25538;48.392;9.976;2022-12-18T07:21:13;63.50;;;34.97;;
39864;SDS011;25538;48.392;9.976;2022-12-18T07:23:40;65.50;;;35.63;;
39864;SDS011;25538;48.392;9.976;2022-12-18T07:26:07;75.23;;;36.23;;
39864;SDS011;25538;48.392;9.976;2022-12-18T07:28:36;65.75;;;34.10;;
39864;SDS011;25538;48.392;9.976;2022-12-18T07:31:03;68.55;;;35.90;;
39864;SDS011;25538;48.392;9.976;2022-12-18T07:33:29;66.47;;;35.72;;
39864;SDS011;25538;48.392;9.976;2022-12-18T07:35:55;64.13;;;32.77;;
39864;SDS011;25538;48.392;9.976;2022-12-18T07:38:21;62.10;;;33.20;;
39864;SDS011;25538;48.392;9.976;2022-12-18T07:40:47;65.67;;;35.43;;
39864;SDS011;25538;48.392;9.976;2022-12-18T07:43:13;71.30;;;37.13;;
39864;SDS011;25538;48.392;9.976;2022-12-18T07:45:39;67.90;;;35.07;;
39864;SDS011;25538;48.392;9.976;2022-12-18T07:48:05;69.90;;;34.80;;
39864;SDS011;25538;48.392;9.976;2022-12-18T07:50:30;71.40;;;33.77;;
39864;SDS011;25538;48.392;9.976;2022-12-18T07:52:56;70.93;;;38.40;;
39864;SDS011;25538;48.392;9.976;2022-12-18T07:55:22;70.13;;;34.78;;
39864;SDS011;25538;48.392;9.976;2022-12-18T07:57:48;73.47;;;34.97;;
39864;SDS011;25538;48.392;9.976;2022-12-18T08:00:14;67.70;;;34.30;;
39864;SDS011;25538;48.392;9.976;2022-12-18T08:02:41;68.18;;;35.20;;
39864;SDS011;25538;48.392;9.976;2022-12-18T08:05:07;72.22;;;36.10;;
39864;SDS011;25538;48.392;9.976;2022-12-18T08:07:33;73.28;;;35.63;;
39864;SDS011;25538;48.392;9.976;2022-12-18T08:09:59;69.13;;;33.60;;
39864;SDS011;25538;48.392;9.976;2022-12-18T08:12:25;71.47;;;34.00;;
39864;SDS011;25538;48.392;9.976;2022-12-18T08:14:51;64.27;;;34.37;;
39864;SDS011;25538;48.392;9.976;2022-12-18T08:17:17;73.47;;;36.20;;
39864;SDS011;25538;48.392;9.976;2022-12-18T08:19:44;64.78;;;34.70;;
39864;SDS011;25538;48.392;9.976;2022-12-18T08:22:10;67.37;;;37.40;;
39864;SDS011;25538;48.392;9.976;2022-12-18T08:24:36;63.60;;;36.23;;
39864;SDS011;25538;48.392;9.976;2022-12-18T08:27:02;60.83;;;33.53;;
39864;SDS011;25538;48.392;9.976;2022-12-18T08:29:28;61.97;;;33.58;;
39864;SDS011;25538;48.392;9.976;2022-12-18T08:31:55;62.90;;;34.55;;
39864;SDS011;25538;48.392;9.976;2022-12-18T08:34:21;60.45;;;34.05;;
39864;SDS011;25538;48.392;9.976;2022-12-18T08:36:47;64.13;;;35.57;;
39864;SDS011;25538;48.392;9.976;2022-12-18T08:39:13;69.93;;;36.70;;
39864;SDS011;25538;48.392;9.976;2022-12-18T08:41:39;71.97;;;36.25;;
39864;SDS011;25538;48.392;9.976;2022-12-18T08:44:06;58.20;;;32.83;;
39864;SDS011;25538;48.392;9.976;2022-12-18T08:46:51;61.10;;;31.65;;
39864;SDS011;25538;48.392;9.976;2022-12-18T08:49:17;54.40;;;30.17;;
39864;SDS011;25538;48.392;9.976;2022-12-18T08:51:43;53.30;;;32.38;;
39864;SDS011;25538;48.392;9.976;2022-12-18T08:54:10;55.80;;;33.65;;
39864;SDS011;25538;48.392;9.976;2022-12-18T08:56:38;56.92;;;31.20;;
39864;SDS011;25538;48.392;9.976;2022-12-18T08:59:05;58.33;;;32.35;;
39864;SDS011;25538;48.392;9.976;2022-12-18T09:01:31;51.05;;;30.15;;
39864;SDS011;25538;48.392;9.976;2022-12-18T09:03:56;57.67;;;29.20;;
39864;SDS011;25538;48.392;9.976;2022-12-18T09:06:22;53.40;;;29.80;;
39864;SDS011;25538;48.392;9.976;2022-12-18T09:08:48;55.55;;;28.67;;
39864;SDS011;25538;48.392;9.976;2022-12-18T09:11:18;46.45;;;30.50;;
39864;SDS011;25538;48.392;9.976;2022-12-18T09:13:52;62.75;;;31.02;;
39864;SDS011;25538;48.392;9.976;2022-12-18T09:16:19;52.15;;;28.65;;
39864;SDS011;25538;48.392;9.976;2022-12-18T09:18:46;49.05;;;26.80;;
39864;SDS011;25538;48.392;9.976;2022-12-18T09:21:16;52.15;;;28.38;;
39864;SDS011;25538;48.392;9.976;2022-12-18T09:23:54;48.03;;;27.05;;
39864;SDS011;25538;48.392;9.976;2022-12-18T09:26:21;50.92;;;27.65;;
39864;SDS011;25538;48.392;9.976;2022-12-18T09:28:48;46.13;;;26.67;;
39864;SDS011;25538;48.392;9.976;2022-12-18T09:31:14;43.65;;;28.27;;
39864;SDS011;25538;48.392;9.976;2022-12-18T09:33:41;51.70;;;29.40;;
39864;SDS011;25538;48.392;9.976;2022-12-18T09:36:07;45.67;;;26.33;;
39864;SDS011;25538;48.392;9.976;2022-12-18T09:38:35;54.10;;;29.88;;
39864;SDS011;25538;48.392;9.976;2022-12-18T09:41:13;48.90;;;26.90;;
39864;SDS011;25538;48.392;9.976;2022-12-18T09:44:04;42.85;;;25.65;;
39864;SDS011;25538;48.392;9.976;2022-12-18T09:46:57;48.95;;;27.70;;
39864;SDS011;25538;48.392;9.976;2022-12-18T09:49:38;47.83;;;27.20;;
39864;SDS011;25538;48.392;9.976;2022-12-18T09:52:19;49.85;;;29.48;;
39864;SDS011;25538;48.392;9.976;2022-12-18T09:54:53;50.30;;;27.92;;
39864;SDS011;25538;48.392;9.976;2022-12-18T09:57:29;45.50;;;25.63;;
39864;SDS011;25538;48.392;9.976;2022-12-18T10:00:14;50.70;;;26.15;;
39864;SDS011;25538;48.392;9.976;2022-12-18T10:02:49;41.78;;;25.60;;
39864;SDS011;25538;48.392;9.976;2022-12-18T10:05:42;42.17;;;24.60;;
39864;SDS011;25538;48.392;9.976;2022-12-18T10:10:52;47.85;;;25.33;;
39864;SDS011;25538;48.392;9.976;2022-12-18T10:13:45;41.80;;;24.85;;
39864;SDS011;25538;48.392;9.976;2022-12-18T10:16:47;44.78;;;23.20;;
39864;SDS011;25538;48.392;9.976;2022-12-18T10:19:20;43.20;;;25.17;;
39864;SDS011;25538;48.392;9.976;2022-12-18T10:22:19;49.47;;;25.45;;
39864;SDS011;25538;48.392;9.976;2022-12-18T10:25:22;39.33;;;23.67;;
39864;SDS011;25538;48.392;9.976;2022-12-18T10:27:55;44.25;;;24.60;;
39864;SDS011;25538;48.392;9.976;2022-12-18T10:30:24;46.22;;;26.08;;
39864;SDS011;25538;48.392;9.976;2022-12-18T10:32:51;45.92;;;25.92;;
39864;SDS011;25538;48.392;9.976;2022-12-18T10:35:21;47.10;;;27.90;;
39864;SDS011;25538;48.392;9.976;2022-12-18T10:37:59;41.70;;;25.65;;
39864;SDS011;25538;48.392;9.976;2022-12-18T10:40:31;48.25;;;26.90;;
39864;SDS011;25538;48.392;9.976;2022-12-18T10:43:05;49.47;;;26.27;;
39864;SDS011;25538;48.392;9.976;2022-12-18T10:45:36;46.13;;;25.95;;
39864;SDS011;25538;48.392;9.976;2022-12-18T10:48:02;48.43;;;26.83;;
39864;SDS011;25538;48.392;9.976;2022-12-18T10:50:30;43.70;;;25.45;;
39864;SDS011;25538;48.392;9.976;2022-12-18T10:52:59;45.58;;;27.30;;
39864;SDS011;25538;48.392;9.976;2022-12-18T10:55:37;39.55;;;25.27;;
39864;SDS011;25538;48.392;9.976;2022-12-18T10:58:16;44.55;;;26.50;;
39864;SDS011;25538;48.392;9.976;2022-12-18T11:03:46;41.67;;;25.60;;
39864;SDS011;25538;48.392;9.976;2022-12-18T11:06:25;49.92;;;28.38;;
39864;SDS011;25538;48.392;9.976;2022-12-18T11:08:58;51.38;;;28.83;;
39864;SDS011;25538;48.392;9.976;2022-12-18T11:11:24;44.25;;;26.67;;
39864;SDS011;25538;48.392;9.976;2022-12-18T11:16:52;50.38;;;26.30;;
39864;SDS011;25538;48.392;9.976;2022-12-18T11:19:28;41.33;;;25.50;;
39864;SDS011;25538;48.392;9.976;2022-12-18T11:21:56;36.53;;;22.48;;
39864;SDS011;25538;48.392;9.976;2022-12-18T11:27:00;34.20;;;21.40;;
39864;SDS011;25538;48.392;9.976;2022-12-18T11:29:32;38.92;;;23.60;;
39864;SDS011;25538;48.392;9.976;2022-12-18T11:32:21;39.17;;;24.05;;
39864;SDS011;25538;48.392;9.976;2022-12-18T11:35:03;37.88;;;21.83;;
39864;SDS011;25538;48.392;9.976;2022-12-18T11:37:43;35.60;;;22.77;;
39864;SDS011;25538;48.392;9.976;2022-12-18T11:40:14;45.00;;;26.05;;
39864;SDS011;25538;48.392;9.976;2022-12-18T11:42:55;42.75;;;24.42;;
39864;SDS011;25538;48.392;9.976;2022-12-18T11:48:30;44.78;;;25.25;;
39864;SDS011;25538;48.392;9.976;2022-12-18T11:51:35;38.15;;;20.92;;
39864;SDS011;25538;48.392;9.976;2022-12-18T11:54:09;36.47;;;23.35;;
39864;SDS011;25538;48.392;9.976;2022-12-18T11:56:43;32.42;;;19.83;;
39864;SDS011;25538;48.392;9.976;2022-12-18T12:01:48;32.35;;;22.02;;
39864;SDS011;25538;48.392;9.976;2022-12-18T12:18:33;40.33;;;22.70;;
39864;SDS011;25538;48.392;9.976;2022-12-18T12:26:14;38.50;;;24.00;;
39864;SDS011;25538;48.392;9.976;2022-12-18T12:29:00;34.97;;;22.45;;
39864;SDS011;25538;48.392;9.976;2022-12-18T12:34:11;37.33;;;23.27;;
39864;SDS011;25538;48.392;9.976;2022-12-18T12:39:29;41.17;;;25.13;;
39864;SDS011;25538;48.392;9.976;2022-12-18T12:41:57;37.05;;;23.88;;
39864;SDS011;25538;48.392;9.976;2022-12-18T12:44:44;37.95;;;22.80;;
39864;SDS011;25538;48.392;9.976;2022-12-18T12:47:20;39.25;;;24.02;;
39864;SDS011;25538;48.392;9.976;2022-12-18T12:49:50;35.47;;;21.45;;
39864;SDS011;25538;48.392;9.976;2022-12-18T12:54:50;36.20;;;21.55;;
39864;SDS011;25538;48.392;9.976;2022-12-18T12:57:21;39.67;;;21.85;;
39864;SDS011;25538;48.392;9.976;2022-12-18T13:10:38;37.63;;;21.48;;
39864;SDS011;25538;48.392;9.976;2022-12-18T13:13:12;38.08;;;22.58;;
39864;SDS011;25538;48.392;9.976;2022-12-18T13:15:44;32.47;;;22.10;;
39864;SDS011;25538;48.392;9.976;2022-12-18T13:18:22;37.05;;;22.98;;
39864;SDS011;25538;48.392;9.976;2022-12-18T13:20:50;33.80;;;20.27;;
39864;SDS011;25538;48.392;9.976;2022-12-18T13:25:55;33.20;;;22.15;;
39864;SDS011;25538;48.392;9.976;2022-12-18T13:31:05;37.42;;;21.88;;
39864;SDS011;25538;48.392;9.976;2022-12-18T13:33:43;33.15;;;21.20;;
39864;SDS011;25538;48.392;9.976;2022-12-18T13:38:42;34.22;;;20.63;;
39864;SDS011;25538;48.392;9.976;2022-12-18T13:51:25;33.42;;;23.23;;
39864;SDS011;25538;48.392;9.976;2022-12-18T13:54:17;33.72;;;19.42;;
39864;SDS011;25538;48.392;9.976;2022-12-18T13:57:01;36.20;;;20.50;;
39864;SDS011;25538;48.392;9.976;2022-12-18T13:59:34;36.15;;;19.20;;
39864;SDS011;25538;48.392;9.976;2022-12-18T14:02:09;38.10;;;19.67;;
39864;SDS011;25538;48.392;9.976;2022-12-18T14:04:44;33.35;;;20.58;;
39864;SDS011;25538;48.392;9.976;2022-12-18T14:07:16;34.20;;;20.45;;
39864;SDS011;25538;48.392;9.976;2022-12-18T14:09:54;39.50;;;21.17;;
39864;SDS011;25538;48.392;9.976;2022-12-18T14:12:26;35.22;;;19.90;;
39864;SDS011;25538;48.392;9.976;2022-12-18T14:20:29;34.47;;;21.00;;
39864;SDS011;25538;48.392;9.976;2022-12-18T14:22:57;37.53;;;22.75;;
39864;SDS011;25538;48.392;9.976;2022-12-18T14:25:28;36.40;;;23.13;;
39864;SDS011;25538;48.392;9.976;2022-12-18T14:28:04;43.45;;;24.92;;
39864;SDS011;25538;48.392;9.976;2022-12-18T14:33:25;35.85;;;21.10;;
39864;SDS011;25538;48.392;9.976;2022-12-18T14:35:56;35.53;;;21.25;;
39864;SDS011;25538;48.392;9.976;2022-12-18T14:38:37;32.75;;;19.88;;
39864;SDS011;25538;48.392;9.976;2022-12-18T14:41:05;35.28;;;20.30;;
39864;SDS011;25538;48.392;9.976;2022-12-18T14:43:32;32.00;;;18.75;;
39864;SDS011;25538;48.392;9.976;2022-12-18T14:46:00;33.72;;;19.48;;
39864;SDS011;25538;48.392;9.976;2022-12-18T14:51:06;38.80;;;22.63;;
39864;SDS011;25538;48.392;9.976;2022-12-18T14:53:45;36.10;;;21.45;;
39864;SDS011;25538;48.392;9.976;2022-12-18T15:01:30;47.15;;;23.65;;
39864;SDS011;25538;48.392;9.976;2022-12-18T15:04:02;35.50;;;20.38;;
39864;SDS011;25538;48.392;9.976;2022-12-18T15:09:03;35.00;;;20.77;;
39864;SDS011;25538;48.392;9.976;2022-12-18T15:11:46;36.60;;;21.23;;
39864;SDS011;25538;48.392;9.976;2022-12-18T15:17:17;43.58;;;20.33;;
39864;SDS011;25538;48.392;9.976;2022-12-18T15:19:45;36.75;;;21.15;;
39864;SDS011;25538;48.392;9.976;2022-12-18T15:22:16;40.80;;;21.80;;
39864;SDS011;25538;48.392;9.976;2022-12-18T15:24:59;42.80;;;21.48;;
39864;SDS011;25538;48.392;9.976;2022-12-18T15:27:29;42.63;;;24.05;;
39864;SDS011;25538;48.392;9.976;2022-12-18T15:32:39;39.38;;;22.77;;
39864;SDS011;25538;48.392;9.976;2022-12-18T15:37:34;41.72;;;23.23;;
39864;SDS011;25538;48.392;9.976;2022-12-18T15:40:00;46.93;;;27.03;;
39864;SDS011;25538;48.392;9.976;2022-12-18T15:42:27;44.25;;;25.20;;
39864;SDS011;25538;48.392;9.976;2022-12-18T15:45:13;41.22;;;22.88;;
39864;SDS011;25538;48.392;9.976;2022-12-18T15:47:39;39.30;;;20.40;;
39864;SDS011;25538;48.392;9.976;2022-12-18T15:50:07;40.47;;;23.65;;
39864;SDS011;25538;48.392;9.976;2022-12-18T15:52:37;33.33;;;21.48;;
39864;SDS011;25538;48.392;9.976;2022-12-18T15:55:08;38.03;;;22.35;;
39864;SDS011;25538;48.392;9.976;2022-12-18T15:57:59;33.28;;;19.85;;
39864;SDS011;25538;48.392;9.976;2022-12-18T16:00:24;36.07;;;21.47;;
39864;SDS011;25538;48.392;9.976;2022-12-18T16:02:51;35.28;;;20.48;;
39864;SDS011;25538;48.392;9.976;2022-12-18T16:05:17;37.90;;;19.70;;
39864;SDS011;25538;48.392;9.976;2022-12-18T16:07:44;35.65;;;20.30;;
39864;SDS011;25538;48.392;9.976;2022-12-18T16:10:10;37.25;;;20.33;;
39864;SDS011;25538;48.392;9.976;2022-12-18T16:12:37;40.05;;;21.40;;
39864;SDS011;25538;48.392;9.976;2022-12-18T16:15:03;37.38;;;22.15;;
39864;SDS011;25538;48.392;9.976;2022-12-18T16:17:31;36.55;;;19.92;;
39864;SDS011;25538;48.392;9.976;2022-12-18T16:19:57;39.00;;;20.58;;
39864;SDS011;25538;48.392;9.976;2022-12-18T16:22:24;31.88;;;19.55;;
39864;SDS011;25538;48.392;9.976;2022-12-18T16:24:52;37.13;;;21.00;;
39864;SDS011;25538;48.392;9.976;2022-12-18T16:27:19;40.42;;;22.17;;
39864;SDS011;25538;48.392;9.976;2022-12-18T16:29:47;42.67;;;22.30;;
39864;SDS011;25538;48.392;9.976;2022-12-18T16:32:14;40.13;;;23.30;;
39864;SDS011;25538;48.392;9.976;2022-12-18T16:34:42;34.85;;;21.13;;
39864;SDS011;25538;48.392;9.976;2022-12-18T16:37:09;42.75;;;25.45;;
39864;SDS011;25538;48.392;9.976;2022-12-18T16:39:37;41.78;;;23.00;;
39864;SDS011;25538;48.392;9.976;2022-12-18T16:42:11;39.38;;;22.90;;
39864;SDS011;25538;48.392;9.976;2022-12-18T16:44:41;37.50;;;20.98;;
39864;SDS011;25538;48.392;9.976;2022-12-18T16:47:08;32.67;;;19.77;;
39864;SDS011;25538;48.392;9.976;2022-12-18T16:49:34;31.88;;;20.38;;
39864;SDS011;25538;48.392;9.976;2022-12-18T16:52:00;39.53;;;21.35;;
39864;SDS011;25538;48.392;9.976;2022-12-18T16:54:26;37.22;;;22.45;;
39864;SDS011;25538;48.392;9.976;2022-12-18T16:56:54;41.70;;;22.45;;
39864;SDS011;25538;48.392;9.976;2022-12-18T16:59:21;38.67;;;22.35;;
39864;SDS011;25538;48.392;9.976;2022-12-18T17:01:47;38.50;;;22.90;;
39864;SDS011;25538;48.392;9.976;2022-12-18T17:04:13;36.72;;;22.55;;
39864;SDS011;25538;48.392;9.976;2022-12-18T17:06:40;32.65;;;20.00;;
39864;SDS011;25538;48.392;9.976;2022-12-18T17:09:09;34.95;;;20.77;;
39864;SDS011;25538;48.392;9.976;2022-12-18T17:11:36;46.80;;;24.17;;
39864;SDS011;25538;48.392;9.976;2022-12-18T17:14:09;38.75;;;23.55;;
39864;SDS011;25538;48.392;9.976;2022-12-18T17:16:38;36.90;;;21.33;;
39864;SDS011;25538;48.392;9.976;2022-12-18T17:19:04;38.83;;;22.97;;
39864;SDS011;25538;48.392;9.976;2022-12-18T17:21:30;40.78;;;22.35;;
39864;SDS011;25538;48.392;9.976;2022-12-18T17:23:58;40.50;;;21.05;;
39864;SDS011;25538;48.392;9.976;2022-12-18T17:26:25;41.65;;;23.23;;
39864;SDS011;25538;48.392;9.976;2022-12-18T17:28:50;40.30;;;24.43;;
39864;SDS011;25538;48.392;9.976;2022-12-18T17:31:17;34.00;;;20.50;;
39864;SDS011;25538;48.392;9.976;2022-12-18T17:33:45;36.67;;;21.02;;
39864;SDS011;25538;48.392;9.976;2022-12-18T17:36:12;36.47;;;22.00;;